createdAt,value
2023-03-19T00:02:08.931Z,12.53
2023-03-19T00:04:18.687Z,15.37
2023-03-19T00:06:22.828Z,10.10
2023-03-19T00:08:27.371Z,12.03
2023-03-19T00:10:30.505Z,13.20
2023-03-19T00:12:33.737Z,9.73
2023-03-19T00:14:36.818Z,13.33
2023-03-19T00:16:40.389Z,14.50
2023-03-19T00:18:43.657Z,10.23
2023-03-19T00:20:46.884Z,12.10
2023-03-19T00:22:50.105Z,10.80
2023-03-19T00:24:54.712Z,10.40
2023-03-19T00:26:57.803Z,9.00
2023-03-19T00:29:02.555Z,11.80
2023-03-19T00:31:10.268Z,11.33
2023-03-19T00:33:13.858Z,11.50
2023-03-19T00:35:17.037Z,13.77
2023-03-19T00:37:20.164Z,10.33
2023-03-19T00:39:23.263Z,13.00
2023-03-19T00:41:28.960Z,11.80
2023-03-19T00:43:32.081Z,13.83
2023-03-19T00:45:35.360Z,11.00
2023-03-19T00:47:38.605Z,10.77
2023-03-19T00:49:41.694Z,10.73
2023-03-19T00:51:45.862Z,8.43
2023-03-19T00:53:50.084Z,9.43
2023-03-19T00:55:53.107Z,10.97
2023-03-19T00:57:57.464Z,11.40
2023-03-19T01:00:00.767Z,11.27
2023-03-19T01:02:04.653Z,12.57
2023-03-19T01:04:07.722Z,12.70
2023-03-19T01:06:11.511Z,10.33
2023-03-19T01:08:14.585Z,11.33
2023-03-19T01:10:18.992Z,8.90
2023-03-19T01:12:22.138Z,10.27
2023-03-19T01:14:26.674Z,7.90
2023-03-19T01:16:30.038Z,9.57
2023-03-19T01:18:33.356Z,10.40
2023-03-19T01:20:37.889Z,13.37
2023-03-19T01:22:42.609Z,10.60
2023-03-19T01:24:47.069Z,10.77
2023-03-19T01:26:50.828Z,10.73
2023-03-19T01:29:02.327Z,8.50
2023-03-19T01:31:09.567Z,11.20
2023-03-19T01:33:31.266Z,10.93
2023-03-19T01:35:40.178Z,7.80
2023-03-19T01:37:43.543Z,14.47
2023-03-19T01:39:47.553Z,9.10
2023-03-19T01:41:51.795Z,9.00
2023-03-19T01:44:26.041Z,12.10
2023-03-19T01:46:48.871Z,10.40
2023-03-19T01:49:28.493Z,8.23
2023-03-19T01:51:52.863Z,8.00
2023-03-19T01:54:11.514Z,8.50
2023-03-19T01:56:27.634Z,9.00
2023-03-19T01:58:37.919Z,10.00
2023-03-19T02:00:52.304Z,10.63
2023-03-19T02:03:01.615Z,9.43
2023-03-19T02:05:32.143Z,11.90
2023-03-19T02:07:42.564Z,9.37
2023-03-19T02:09:47.057Z,8.63
2023-03-19T02:11:51.245Z,7.83
2023-03-19T02:13:54.699Z,8.90
2023-03-19T02:15:59.036Z,8.07
2023-03-19T02:18:04.168Z,9.27
2023-03-19T02:20:13.015Z,8.87
2023-03-19T02:22:20.046Z,8.80
2023-03-19T02:24:26.976Z,8.30
2023-03-19T02:26:39.905Z,8.47
2023-03-19T02:28:45.827Z,13.80
2023-03-19T02:30:53.040Z,11.23
2023-03-19T02:32:57.157Z,11.17
2023-03-19T02:35:00.984Z,14.00
2023-03-19T02:37:09.473Z,9.00
2023-03-19T02:39:19.121Z,7.73
2023-03-19T02:41:26.275Z,7.73
2023-03-19T02:43:32.103Z,8.30
2023-03-19T02:45:35.500Z,11.20
2023-03-19T02:47:39.296Z,7.57
2023-03-19T02:49:43.119Z,10.90
2023-03-19T02:51:46.864Z,9.57
2023-03-19T02:53:50.418Z,10.67
2023-03-19T02:55:55.603Z,9.00
2023-03-19T02:57:59.292Z,8.80
2023-03-19T03:00:05.258Z,10.17
2023-03-19T03:02:10.204Z,10.97
2023-03-19T03:04:16.417Z,9.37
2023-03-19T03:06:20.981Z,8.23
2023-03-19T03:08:24.335Z,9.47
2023-03-19T03:10:28.526Z,8.50
2023-03-19T03:12:32.533Z,8.30
2023-03-19T03:14:36.213Z,11.67
2023-03-19T03:16:43.201Z,15.13
2023-03-19T03:18:47.265Z,9.00
2023-03-19T03:20:50.967Z,8.87
2023-03-19T03:22:54.880Z,8.30
2023-03-19T03:24:58.430Z,7.53
2023-03-19T03:27:02.128Z,8.40
2023-03-19T03:29:05.818Z,9.67
2023-03-19T03:31:09.281Z,10.80
2023-03-19T03:33:17.395Z,11.60
2023-03-19T03:35:22.620Z,10.57
2023-03-19T03:37:26.561Z,10.17
2023-03-19T03:39:30.625Z,10.60
2023-03-19T03:41:34.669Z,11.00
2023-03-19T03:43:39.518Z,10.77
2023-03-19T03:45:43.177Z,10.43
2023-03-19T03:47:47.507Z,10.30
2023-03-19T03:49:52.955Z,10.30
2023-03-19T03:51:57.470Z,10.50
2023-03-19T03:54:01.287Z,12.20
2023-03-19T03:56:05.177Z,10.47
2023-03-19T03:58:08.557Z,14.33
2023-03-19T04:00:12.981Z,8.60
2023-03-19T04:02:20.878Z,7.40
2023-03-19T04:04:24.089Z,8.23
2023-03-19T04:06:28.900Z,10.10
2023-03-19T04:08:48.800Z,10.53
2023-03-19T04:10:52.219Z,11.73
2023-03-19T04:12:55.527Z,11.30
2023-03-19T04:14:58.983Z,8.67
2023-03-19T04:17:02.127Z,9.03
2023-03-19T04:19:05.266Z,13.77
2023-03-19T04:21:08.998Z,9.03
2023-03-19T04:23:13.946Z,10.97
2023-03-19T04:25:18.459Z,9.97
2023-03-19T04:27:22.066Z,9.37
2023-03-19T04:29:25.533Z,13.13
2023-03-19T04:31:28.732Z,9.53
2023-03-19T04:33:32.311Z,10.20
2023-03-19T04:35:35.621Z,9.63
2023-03-19T04:37:39.008Z,9.43
2023-03-19T04:39:44.404Z,7.90
2023-03-19T04:41:50.358Z,9.90
2023-03-19T04:44:07.683Z,7.00
2023-03-19T04:46:11.909Z,8.50
2023-03-19T04:48:14.977Z,11.23
2023-03-19T04:50:19.074Z,8.37
2023-03-19T04:52:22.618Z,8.23
2023-03-19T04:54:26.297Z,6.80
2023-03-19T04:56:30.721Z,12.40
2023-03-19T04:58:33.995Z,6.53
2023-03-19T05:00:39.269Z,9.53
2023-03-19T05:02:43.405Z,6.30
2023-03-19T05:04:46.728Z,7.20
2023-03-19T05:06:51.321Z,6.90
2023-03-19T05:08:54.524Z,9.13
2023-03-19T05:10:58.593Z,6.83
2023-03-19T05:13:06.867Z,7.50
2023-03-19T05:15:13.843Z,7.30
2023-03-19T05:17:29.026Z,8.23
2023-03-19T05:19:50.417Z,8.43
2023-03-19T05:21:53.746Z,7.70
2023-03-19T05:24:00.466Z,7.03
2023-03-19T05:26:06.699Z,8.33
2023-03-19T05:28:49.651Z,9.03
2023-03-19T05:30:56.940Z,7.30
2023-03-19T05:33:05.194Z,7.77
2023-03-19T05:35:17.662Z,10.10
2023-03-19T05:37:21.643Z,6.50
2023-03-19T05:39:30.717Z,11.13
2023-03-19T05:41:38.383Z,9.20
2023-03-19T05:43:43.181Z,7.90
2023-03-19T05:45:56.798Z,7.63
2023-03-19T05:48:04.227Z,6.80
2023-03-19T05:50:13.152Z,7.00
2023-03-19T05:52:22.736Z,8.30
2023-03-19T05:54:27.059Z,9.15
2023-03-19T05:56:42.576Z,7.40
2023-03-19T05:59:11.664Z,8.53
2023-03-19T06:01:20.819Z,12.93
2023-03-19T06:03:24.190Z,7.70
2023-03-19T06:05:28.688Z,12.90
2023-03-19T06:07:37.070Z,9.73
2023-03-19T06:09:43.581Z,8.67
2023-03-19T06:11:47.693Z,8.17
2023-03-19T06:14:17.054Z,8.10
2023-03-19T06:16:32.324Z,8.83
2023-03-19T06:18:36.574Z,8.80
2023-03-19T06:20:45.494Z,8.90
2023-03-19T06:22:49.426Z,9.10
2023-03-19T06:24:52.652Z,7.77
2023-03-19T06:26:56.310Z,10.60
2023-03-19T06:28:59.517Z,11.53
2023-03-19T06:31:02.670Z,7.70
2023-03-19T06:33:27.757Z,7.80
2023-03-19T06:35:31.189Z,9.03
2023-03-19T06:37:34.624Z,8.00
2023-03-19T06:39:38.235Z,8.13
2023-03-19T06:41:41.575Z,8.73
2023-03-19T06:43:52.385Z,10.73
2023-03-19T06:45:55.734Z,7.97
2023-03-19T06:47:58.988Z,8.47
2023-03-19T06:50:04.487Z,9.80
2023-03-19T06:52:07.869Z,7.60
2023-03-19T06:54:11.226Z,8.90
2023-03-19T06:56:14.257Z,7.87
2023-03-19T06:58:17.345Z,8.98
2023-03-19T07:00:21.249Z,8.13
2023-03-19T07:02:24.570Z,9.00
2023-03-19T07:04:27.720Z,9.70
2023-03-19T07:06:33.644Z,9.90
2023-03-19T07:08:36.689Z,9.67
2023-03-19T07:10:39.921Z,7.07
2023-03-19T07:12:43.062Z,7.73
2023-03-19T07:14:47.248Z,9.18
2023-03-19T07:16:50.287Z,8.07
2023-03-19T07:18:53.442Z,6.33
2023-03-19T07:20:56.567Z,6.80
2023-03-19T07:23:01.247Z,7.40
2023-03-19T07:25:04.532Z,5.50
2023-03-19T07:27:07.649Z,6.73
2023-03-19T07:29:11.199Z,9.67
2023-03-19T07:31:14.418Z,9.90
2023-03-19T07:33:17.789Z,10.73
2023-03-19T07:35:21.409Z,14.03
2023-03-19T07:37:24.413Z,9.70
2023-03-19T07:39:28.774Z,10.47
2023-03-19T07:41:32.113Z,8.33
2023-03-19T07:43:35.353Z,9.57
2023-03-19T07:45:38.560Z,8.73
2023-03-19T07:47:41.666Z,12.00
2023-03-19T07:49:44.772Z,10.50
2023-03-19T07:51:47.980Z,9.60
2023-03-19T07:53:51.139Z,6.23
2023-03-19T07:55:55.675Z,8.75
2023-03-19T07:57:58.840Z,9.40
2023-03-19T08:00:01.978Z,7.90
2023-03-19T08:02:05.335Z,10.03
2023-03-19T08:04:08.685Z,7.33
2023-03-19T08:06:12.176Z,8.40
2023-03-19T08:08:15.413Z,6.20
2023-03-19T08:10:18.781Z,7.70
2023-03-19T08:12:23.277Z,7.53
2023-03-19T08:14:26.740Z,6.80
2023-03-19T08:16:30.029Z,6.50
2023-03-19T08:18:33.968Z,6.50
2023-03-19T08:20:37.178Z,5.63
2023-03-19T08:22:41.758Z,6.97
2023-03-19T08:24:44.957Z,5.40
2023-03-19T08:26:48.331Z,5.43
2023-03-19T08:28:53.361Z,6.23
2023-03-19T08:30:56.840Z,5.30
2023-03-19T08:33:00.271Z,4.97
2023-03-19T08:35:04.006Z,4.60
2023-03-19T08:37:10.086Z,5.83
2023-03-19T08:39:13.200Z,6.73
2023-03-19T08:41:16.355Z,7.23
2023-03-19T08:43:19.641Z,4.40
2023-03-19T08:45:24.326Z,4.20
2023-03-19T08:47:27.776Z,4.67
2023-03-19T08:49:31.033Z,4.00
2023-03-19T08:51:34.356Z,4.53
2023-03-19T08:53:38.674Z,4.33
2023-03-19T08:55:42.859Z,6.10
2023-03-19T08:57:45.949Z,3.90
2023-03-19T08:59:49.053Z,5.20
2023-03-19T09:01:54.387Z,4.30
2023-03-19T09:03:57.657Z,4.13
2023-03-19T09:06:01.551Z,5.20
2023-03-19T09:08:04.667Z,8.50
2023-03-19T09:10:08.839Z,4.87
2023-03-19T09:12:15.219Z,3.43
2023-03-19T09:14:20.107Z,7.50
2023-03-19T09:16:23.530Z,11.17
2023-03-19T09:18:28.365Z,4.07
2023-03-19T09:20:31.622Z,4.13
2023-03-19T09:22:34.864Z,4.57
2023-03-19T09:24:40.466Z,4.57
2023-03-19T09:26:43.854Z,4.10
2023-03-19T09:28:47.257Z,3.90
2023-03-19T09:30:51.797Z,3.47
2023-03-19T09:32:55.915Z,3.60
2023-03-19T09:35:00.480Z,3.70
2023-03-19T09:37:03.479Z,7.27
2023-03-19T09:39:07.380Z,19.70
2023-03-19T09:41:11.904Z,4.47
2023-03-19T09:43:36.003Z,4.10
2023-03-19T09:45:39.220Z,5.00
2023-03-19T09:47:43.412Z,3.33
2023-03-19T09:49:49.105Z,4.80
2023-03-19T09:51:55.177Z,3.47
2023-03-19T09:54:00.808Z,3.47
2023-03-19T09:56:06.762Z,4.07
2023-03-19T09:58:15.670Z,4.33
2023-03-19T10:00:23.991Z,4.70
2023-03-19T10:02:40.310Z,4.30
2023-03-19T10:04:53.996Z,3.50
2023-03-19T10:07:03.832Z,5.27
2023-03-19T10:09:33.863Z,2.70
2023-03-19T10:11:50.498Z,2.73
2023-03-19T10:14:00.611Z,3.50
2023-03-19T10:16:04.617Z,3.53
2023-03-19T10:18:11.613Z,3.60
2023-03-19T10:20:18.904Z,3.57
2023-03-19T10:22:27.222Z,3.33
2023-03-19T10:24:33.253Z,3.10
2023-03-19T10:26:36.637Z,4.47
2023-03-19T10:28:43.598Z,5.37
2023-03-19T10:30:53.149Z,6.20
2023-03-19T10:33:07.836Z,7.20
2023-03-19T10:35:18.945Z,4.23
2023-03-19T10:37:26.249Z,5.43
2023-03-19T10:39:29.669Z,5.73
2023-03-19T10:41:39.687Z,4.03
2023-03-19T10:43:43.428Z,4.17
2023-03-19T10:45:47.752Z,6.63
2023-03-19T10:47:51.567Z,3.70
2023-03-19T10:49:57.766Z,5.07
2023-03-19T10:52:01.025Z,3.00
2023-03-19T10:54:20.041Z,4.43
2023-03-19T10:56:24.719Z,3.77
2023-03-19T10:58:29.172Z,3.97
2023-03-19T11:00:35.277Z,4.07
2023-03-19T11:02:38.873Z,4.93
2023-03-19T11:04:41.927Z,4.53
2023-03-19T11:06:49.991Z,3.37
2023-03-19T11:08:57.135Z,3.90
2023-03-19T11:11:01.864Z,5.43
2023-03-19T11:13:07.288Z,3.60
2023-03-19T11:15:19.677Z,4.13
2023-03-19T11:17:24.361Z,5.30
2023-03-19T11:19:29.660Z,3.03
2023-03-19T11:21:32.992Z,4.73
2023-03-19T11:23:41.497Z,7.83
2023-03-19T11:25:48.866Z,7.00
2023-03-19T11:28:02.149Z,4.73
2023-03-19T11:30:14.245Z,5.40
2023-03-19T11:32:53.614Z,6.07
2023-03-19T11:35:00.103Z,4.53
2023-03-19T11:37:09.064Z,5.60
2023-03-19T11:39:22.986Z,3.20
2023-03-19T11:41:31.524Z,4.40
2023-03-19T11:43:46.153Z,3.70
2023-03-19T11:45:57.422Z,3.53
2023-03-19T11:48:13.998Z,4.60
2023-03-19T11:50:26.045Z,3.57
2023-03-19T11:52:32.044Z,6.23
2023-03-19T11:54:43.760Z,3.70
2023-03-19T11:56:50.159Z,6.43
2023-03-19T11:59:25.675Z,4.03
2023-03-19T12:01:43.594Z,3.10
2023-03-19T12:04:09.433Z,5.03
2023-03-19T12:06:20.829Z,4.27
2023-03-19T12:08:33.048Z,4.67
2023-03-19T12:10:47.661Z,4.20
2023-03-19T12:12:55.771Z,5.83
2023-03-19T12:15:08.660Z,3.80
2023-03-19T12:17:22.656Z,5.50
2023-03-19T12:19:50.488Z,4.93
2023-03-19T12:22:00.429Z,4.00
2023-03-19T12:24:05.952Z,3.70
2023-03-19T12:26:09.943Z,6.20
2023-03-19T12:28:19.509Z,4.90
2023-03-19T12:30:31.889Z,4.87
2023-03-19T12:32:46.481Z,4.93
2023-03-19T12:34:52.254Z,4.33
2023-03-19T12:37:00.539Z,4.30
2023-03-19T12:39:06.976Z,6.30
2023-03-19T12:41:12.547Z,4.90
2023-03-19T12:43:19.838Z,4.10
2023-03-19T12:45:31.018Z,4.30
2023-03-19T12:47:38.598Z,3.50
2023-03-19T12:49:43.935Z,5.07
2023-03-19T12:51:52.064Z,3.90
2023-03-19T12:53:57.836Z,4.30
2023-03-19T12:56:06.141Z,3.60
2023-03-19T12:58:15.631Z,3.67
2023-03-19T13:00:22.017Z,4.13
2023-03-19T13:02:32.154Z,4.00
2023-03-19T13:04:40.111Z,5.27
2023-03-19T13:06:49.251Z,5.73
2023-03-19T13:08:57.269Z,2.93
2023-03-19T13:11:00.806Z,3.47
2023-03-19T13:13:14.116Z,5.93
2023-03-19T13:15:21.552Z,7.33
2023-03-19T13:17:31.842Z,4.53
2023-03-19T13:19:41.428Z,4.10
2023-03-19T13:21:44.665Z,4.80
2023-03-19T13:23:49.754Z,3.97
2023-03-19T13:25:53.888Z,4.00
2023-03-19T13:27:57.220Z,5.33
2023-03-19T13:30:07.479Z,4.60
2023-03-19T13:32:26.682Z,4.30
2023-03-19T13:34:32.478Z,5.07
2023-03-19T13:36:38.276Z,3.73
2023-03-19T13:38:43.594Z,8.47
2023-03-19T13:40:48.971Z,5.33
2023-03-19T13:42:57.626Z,4.23
2023-03-19T13:45:03.974Z,7.43
2023-03-19T13:47:42.408Z,3.53
2023-03-19T13:50:05.661Z,4.10
2023-03-19T13:52:46.204Z,4.30
2023-03-19T13:54:53.979Z,2.37
2023-03-19T13:57:06.798Z,2.30
2023-03-19T13:59:25.167Z,5.73
2023-03-19T14:01:44.573Z,3.33
2023-03-19T14:03:56.159Z,4.43
2023-03-19T14:06:00.192Z,8.73
2023-03-19T14:08:17.126Z,9.83
2023-03-19T14:10:25.260Z,12.50
2023-03-19T14:12:33.060Z,13.57
2023-03-19T14:14:41.476Z,15.30
2023-03-19T14:16:47.502Z,21.90
2023-03-19T14:18:51.098Z,15.90
2023-03-19T14:21:06.399Z,3.97
2023-03-19T14:23:23.833Z,4.97
2023-03-19T14:25:55.084Z,3.80
2023-03-19T14:28:00.760Z,4.83
2023-03-19T14:30:11.192Z,6.67
2023-03-19T14:32:17.846Z,11.00
2023-03-19T14:34:22.864Z,8.50
2023-03-19T14:36:28.046Z,5.93
2023-03-19T14:38:37.499Z,13.00
2023-03-19T14:40:44.439Z,5.53
2023-03-19T14:42:57.560Z,4.20
2023-03-19T14:45:42.194Z,4.10
2023-03-19T14:48:25.300Z,6.30
2023-03-19T14:50:49.430Z,5.03
2023-03-19T14:52:59.282Z,5.67
2023-03-19T14:55:03.635Z,3.67
2023-03-19T14:57:10.202Z,4.63
2023-03-19T14:59:15.350Z,5.13
2023-03-19T15:01:19.298Z,6.40
2023-03-19T15:03:24.434Z,4.93
2023-03-19T15:05:30.603Z,5.50
2023-03-19T15:07:35.333Z,5.20
2023-03-19T15:09:39.984Z,4.70
2023-03-19T15:12:01.662Z,4.30
2023-03-19T15:14:44.111Z,4.93
2023-03-19T15:16:52.105Z,5.00
2023-03-19T15:18:55.583Z,3.83
2023-03-19T15:20:58.950Z,5.40
2023-03-19T15:23:05.803Z,5.43
2023-03-19T15:25:16.640Z,4.67
2023-03-19T15:27:21.362Z,4.60
2023-03-19T15:29:32.153Z,5.00
2023-03-19T15:32:04.442Z,4.47
2023-03-19T15:34:19.213Z,4.83
2023-03-19T15:36:25.966Z,4.27
2023-03-19T15:38:34.510Z,4.97
2023-03-19T15:40:39.571Z,5.50
2023-03-19T15:42:43.253Z,4.60
2023-03-19T15:44:49.610Z,5.27
2023-03-19T15:46:53.002Z,5.77
2023-03-19T15:48:59.495Z,5.20
2023-03-19T15:51:03.653Z,4.33
2023-03-19T15:53:09.462Z,3.33
2023-03-19T15:55:13.940Z,3.17
2023-03-19T15:57:19.038Z,4.50
2023-03-19T15:59:26.647Z,3.93
2023-03-19T16:01:31.268Z,3.03
2023-03-19T16:03:38.841Z,3.63
2023-03-19T16:05:42.073Z,5.00
2023-03-19T16:07:45.526Z,3.20
2023-03-19T16:09:48.708Z,3.00
2023-03-19T16:11:52.560Z,3.53
2023-03-19T16:13:59.116Z,7.33
2023-03-19T16:16:04.693Z,8.50
2023-03-19T16:18:11.326Z,9.17
2023-03-19T16:20:15.807Z,5.20
2023-03-19T16:22:22.225Z,7.03
2023-03-19T16:24:27.500Z,5.70
2023-03-19T16:26:32.845Z,4.47
2023-03-19T16:28:35.892Z,5.33
2023-03-19T16:30:47.328Z,5.20
2023-03-19T16:32:59.815Z,4.63
2023-03-19T16:35:06.194Z,6.07
2023-03-19T16:37:29.170Z,5.57
2023-03-19T16:39:36.449Z,4.37
2023-03-19T16:41:39.586Z,5.30
2023-03-19T16:43:46.233Z,4.50
2023-03-19T16:46:05.634Z,3.43
2023-03-19T16:48:09.724Z,4.27
2023-03-19T16:50:13.663Z,4.50
2023-03-19T16:52:19.478Z,5.20
2023-03-19T16:54:23.827Z,4.00
2023-03-19T16:56:27.045Z,4.40
2023-03-19T16:58:32.070Z,8.40
2023-03-19T17:00:35.783Z,5.70
2023-03-19T17:02:40.340Z,6.90
2023-03-19T17:04:43.670Z,5.60
2023-03-19T17:06:47.086Z,6.07
2023-03-19T17:08:50.399Z,6.10
2023-03-19T17:10:54.688Z,6.10
2023-03-19T17:12:58.155Z,5.87
2023-03-19T17:15:01.439Z,11.13
2023-03-19T17:17:04.654Z,9.33
2023-03-19T17:19:18.425Z,9.70
2023-03-19T17:21:23.760Z,7.83
2023-03-19T17:23:27.307Z,7.30
2023-03-19T17:25:30.682Z,7.10
2023-03-19T17:27:34.812Z,5.33
2023-03-19T17:29:37.955Z,5.80
2023-03-19T17:31:41.161Z,4.43
2023-03-19T17:33:44.247Z,2.80
2023-03-19T17:35:48.785Z,3.23
2023-03-19T17:37:52.616Z,3.23
2023-03-19T17:39:55.900Z,6.13
2023-03-19T17:41:59.173Z,3.20
2023-03-19T17:44:05.030Z,3.40
2023-03-19T17:46:12.704Z,4.63
2023-03-19T17:48:21.333Z,6.17
2023-03-19T17:50:26.613Z,3.80
2023-03-19T17:52:31.301Z,4.90
2023-03-19T17:54:34.410Z,4.97
2023-03-19T17:56:37.502Z,6.17
2023-03-19T17:58:40.629Z,4.00
2023-03-19T18:00:43.929Z,4.00
2023-03-19T18:02:47.802Z,5.00
2023-03-19T18:04:52.624Z,6.03
2023-03-19T18:06:57.408Z,5.77
2023-03-19T18:09:02.098Z,7.17
2023-03-19T18:11:05.345Z,6.03
2023-03-19T18:13:08.433Z,6.20
2023-03-19T18:15:12.380Z,7.67
2023-03-19T18:17:16.928Z,7.00
2023-03-19T18:19:32.082Z,8.10
2023-03-19T18:21:35.359Z,8.27
2023-03-19T18:23:38.550Z,8.50
2023-03-19T18:25:43.963Z,7.70
2023-03-19T18:27:47.206Z,6.93
2023-03-19T18:29:50.413Z,9.67
2023-03-19T18:31:53.817Z,6.37
2023-03-19T18:34:00.115Z,6.23
2023-03-19T18:36:03.535Z,7.07
2023-03-19T18:38:07.723Z,6.30
2023-03-19T18:40:15.670Z,10.53
2023-03-19T18:42:20.212Z,9.90
2023-03-19T18:44:24.188Z,10.67
2023-03-19T18:46:29.697Z,9.17
2023-03-19T18:48:33.788Z,8.80
2023-03-19T18:50:37.022Z,8.07
2023-03-19T18:52:40.329Z,6.80
2023-03-19T18:54:43.509Z,7.30
2023-03-19T18:56:48.434Z,8.67
2023-03-19T18:58:53.587Z,8.57
2023-03-19T19:00:56.917Z,7.83
2023-03-19T19:03:01.620Z,9.20
2023-03-19T19:05:05.509Z,8.93
2023-03-19T19:07:09.169Z,8.60
2023-03-19T19:09:12.518Z,7.10
2023-03-19T19:11:16.715Z,7.87
2023-03-19T19:13:22.359Z,9.50
2023-03-19T19:15:29.970Z,8.03
2023-03-19T19:17:33.377Z,8.90
2023-03-19T19:19:36.575Z,6.33
2023-03-19T19:21:39.681Z,5.53
2023-03-19T19:23:43.758Z,5.77
2023-03-19T19:25:50.978Z,4.57
2023-03-19T19:27:57.888Z,5.67
2023-03-19T19:30:01.497Z,4.37
2023-03-19T19:32:07.234Z,4.23
2023-03-19T19:34:12.360Z,4.57
2023-03-19T19:36:15.457Z,4.50
2023-03-19T19:38:18.709Z,5.27
2023-03-19T19:40:23.544Z,4.53
2023-03-19T19:42:26.691Z,4.97
2023-03-19T19:44:30.111Z,4.80
2023-03-19T19:46:33.554Z,5.07
2023-03-19T19:48:38.422Z,5.27
2023-03-19T19:50:41.676Z,5.60
2023-03-19T19:52:44.811Z,5.33
2023-03-19T19:54:48.578Z,6.03
2023-03-19T19:56:52.354Z,5.13
2023-03-19T19:58:57.463Z,5.90
2023-03-19T20:01:04.188Z,5.87
2023-03-19T20:03:07.792Z,6.00
2023-03-19T20:05:17.961Z,6.37
2023-03-19T20:07:21.140Z,6.50
2023-03-19T20:09:24.469Z,9.63
2023-03-19T20:11:27.894Z,8.83
2023-03-19T20:13:34.052Z,8.47
2023-03-19T20:15:37.539Z,7.43
2023-03-19T20:17:41.426Z,7.30
2023-03-19T20:19:45.016Z,7.80
2023-03-19T20:21:49.959Z,8.13
2023-03-19T20:23:55.446Z,8.40
2023-03-19T20:25:59.768Z,8.73
2023-03-19T20:28:03.810Z,8.57
2023-03-19T20:30:09.118Z,10.53
2023-03-19T20:32:26.226Z,8.33
2023-03-19T20:34:39.017Z,9.00
2023-03-19T20:36:42.767Z,12.13
2023-03-19T20:38:47.226Z,10.00
2023-03-19T20:40:52.895Z,8.70
2023-03-19T20:42:56.177Z,8.60
2023-03-19T20:44:59.938Z,13.53
2023-03-19T20:47:03.094Z,15.23
2023-03-19T20:49:06.333Z,14.80
2023-03-19T20:51:17.327Z,12.60
2023-03-19T20:53:20.588Z,13.40
2023-03-19T20:55:27.103Z,12.30
2023-03-19T20:57:30.852Z,9.93
2023-03-19T20:59:34.138Z,8.50
2023-03-19T21:01:37.377Z,9.27
2023-03-19T21:03:40.552Z,9.80
2023-03-19T21:05:43.814Z,10.30
2023-03-19T21:07:48.242Z,10.20
2023-03-19T21:09:51.444Z,12.97
2023-03-19T21:11:56.056Z,20.60
2023-03-19T21:13:59.391Z,22.33
2023-03-19T21:16:02.853Z,18.70
2023-03-19T21:18:06.145Z,15.20
2023-03-19T21:20:11.261Z,16.50
2023-03-19T21:22:15.217Z,19.03
2023-03-19T21:24:19.506Z,20.17
2023-03-19T21:26:23.159Z,14.47
2023-03-19T21:28:30.629Z,9.50
2023-03-19T21:30:35.292Z,14.70
2023-03-19T21:32:38.943Z,13.80
2023-03-19T21:34:41.993Z,17.87
2023-03-19T21:36:45.726Z,13.70
2023-03-19T21:38:50.848Z,12.63
2023-03-19T21:40:56.618Z,14.93
2023-03-19T21:43:02.135Z,13.40
2023-03-19T21:45:07.954Z,12.53
2023-03-19T21:47:13.347Z,11.70
2023-03-19T21:49:16.891Z,10.30
2023-03-19T21:51:20.415Z,10.40
2023-03-19T21:53:23.824Z,9.63
2023-03-19T21:55:31.701Z,11.87
2023-03-19T21:57:34.805Z,12.17
2023-03-19T21:59:38.656Z,9.60
2023-03-19T22:01:43.134Z,11.00
2023-03-19T22:03:46.584Z,11.67
2023-03-19T22:05:51.237Z,13.40
2023-03-19T22:07:54.735Z,12.00
2023-03-19T22:09:57.826Z,15.00
2023-03-19T22:12:01.412Z,14.83
2023-03-19T22:14:09.485Z,18.47
2023-03-19T22:16:18.795Z,17.77
2023-03-19T22:18:24.188Z,14.10
2023-03-19T22:20:27.380Z,15.90
2023-03-19T22:22:32.288Z,19.57
2023-03-19T22:24:35.543Z,16.87
2023-03-19T22:26:40.013Z,13.70
2023-03-19T22:28:43.126Z,16.87
2023-03-19T22:30:47.476Z,16.63
2023-03-19T22:32:50.674Z,19.00
2023-03-19T22:34:55.257Z,19.80
2023-03-19T22:36:58.483Z,14.40
2023-03-19T22:39:01.554Z,18.17
2023-03-19T22:41:04.923Z,14.47
2023-03-19T22:43:17.663Z,13.80
2023-03-19T22:45:25.052Z,12.03
2023-03-19T22:47:28.341Z,14.10
2023-03-19T22:49:32.086Z,14.23
2023-03-19T22:51:36.536Z,10.00
2023-03-19T22:53:39.639Z,11.70
2023-03-19T22:55:42.798Z,11.27
2023-03-19T22:57:46.324Z,12.40
2023-03-19T22:59:51.207Z,12.00
2023-03-19T23:01:54.355Z,10.83
2023-03-19T23:03:57.902Z,13.80
2023-03-19T23:06:03.414Z,10.33
2023-03-19T23:08:08.407Z,10.77
2023-03-19T23:10:17.133Z,9.40
2023-03-19T23:12:20.828Z,9.33
2023-03-19T23:14:31.706Z,12.47
2023-03-19T23:16:34.935Z,8.97
2023-03-19T23:18:38.491Z,9.40
2023-03-19T23:20:41.926Z,9.70
2023-03-19T23:22:45.777Z,9.47
2023-03-19T23:24:50.519Z,10.13
2023-03-19T23:26:55.651Z,9.37
2023-03-19T23:29:02.660Z,10.33
2023-03-19T23:31:07.297Z,10.20
2023-03-19T23:33:11.689Z,13.13
2023-03-19T23:35:17.754Z,9.60
2023-03-19T23:37:21.390Z,9.37
2023-03-19T23:39:25.577Z,13.23
2023-03-19T23:41:30.139Z,9.03
2023-03-19T23:43:33.442Z,9.30
2023-03-19T23:45:38.978Z,8.60
2023-03-19T23:47:42.035Z,11.30
2023-03-19T23:49:45.093Z,8.93
2023-03-19T23:51:48.186Z,9.87
2023-03-19T23:53:51.311Z,9.53
2023-03-19T23:55:56.052Z,10.37
2023-03-19T23:58:00.894Z,10.63
